Time;durP1;ratioP1;P1;durP2;ratioP2;P2;SDS_P1;SDS_P2;PMS_P1;PMS_P2;Temp;Humidity;BMP_temperature;BMP_pressure;BME280_temperature;BME280_humidity;BME280_pressure;Samples;Min_cycle;Max_cycle;Signal;HPM_P1;HPM_P2
2021/12/10 00:02:02;;;;;;;46.47;23.43;;;;;;;;;;4979333;28;20537;-81
2021/12/10 00:04:35;;;;;;;55.40;23.90;;;;;;;;;;4979711;28;20690;-82
2021/12/10 00:07:09;;;;;;;61.67;28.27;;;;;;;;;;4995341;28;20229;-81
2021/12/10 00:09:43;;;;;;;52.97;23.00;;;;;;;;;;4995506;28;20206;-81
2021/12/10 00:12:18;;;;;;;56.20;25.60;;;;;;;;;;4979409;28;20229;-81
2021/12/10 00:14:46;;;;;;;52.43;24.43;;;;;;;;;;4979509;28;20182;-81
2021/12/10 00:17:16;;;;;;;59.07;23.73;;;;;;;;;;4995351;28;20205;-80
2021/12/10 00:19:48;;;;;;;51.50;23.00;;;;;;;;;;4979382;28;20182;-81
2021/12/10 00:22:21;;;;;;;53.83;23.13;;;;;;;;;;4995270;28;20182;-81
2021/12/10 00:24:51;;;;;;;55.20;24.40;;;;;;;;;;4978657;28;20543;-81
2021/12/10 00:27:27;;;;;;;56.00;23.67;;;;;;;;;;4979134;28;20200;-81
2021/12/10 00:30:04;;;;;;;42.47;19.47;;;;;;;;;;4995202;28;20628;-81
2021/12/10 00:32:38;;;;;;;63.90;25.07;;;;;;;;;;4979884;28;20186;-81
2021/12/10 00:35:21;;;;;;;60.57;25.37;;;;;;;;;;4995944;28;20616;-81
2021/12/10 00:37:52;;;;;;;54.77;24.60;;;;;;;;;;4978887;28;20182;-81
2021/12/10 00:40:22;;;;;;;45.83;20.73;;;;;;;;;;4994811;28;20185;-82
2021/12/10 00:42:52;;;;;;;58.00;25.07;;;;;;;;;;4978965;28;20186;-82
2021/12/10 00:45:19;;;;;;;58.67;25.93;;;;;;;;;;4995124;28;20221;-82
2021/12/10 00:47:48;;;;;;;57.40;25.63;;;;;;;;;;4994711;28;20644;-82
2021/12/10 00:50:20;;;;;;;61.60;25.47;;;;;;;;;;4978700;28;20202;-81
2021/12/10 00:52:47;;;;;;;60.93;25.30;;;;;;;;;;4994856;28;20624;-81
2021/12/10 00:55:15;;;;;;;62.83;25.80;;;;;;;;;;4978547;28;20208;-81
2021/12/10 00:57:43;;;;;;;69.13;27.77;;;;;;;;;;4994531;28;20198;-81
2021/12/10 01:00:15;;;;;;;66.70;27.43;;;;;;;;;;4978274;28;20214;-81
2021/12/10 01:02:43;;;;;;;60.43;25.47;;;;;;;;;;4994084;28;20183;-79
2021/12/10 01:05:11;;;;;;;67.23;26.00;;;;;;;;;;4994537;28;20545;-82
2021/12/10 01:07:39;;;;;;;64.47;26.33;;;;;;;;;;4978048;28;20214;-79
2021/12/10 01:10:21;;;;;;;63.63;24.60;;;;;;;;;;4978267;28;20301;-80
2021/12/10 01:12:52;;;;;;;67.90;25.73;;;;;;;;;;4978179;28;20280;-81
2021/12/10 01:24:15;;;;;;;67.37;28.83;;;;;;;;;;4995802;28;20540;-81
2021/12/10 01:29:17;;;;;;;68.27;26.60;;;;;;;;;;4993654;28;20179;-80
2021/12/10 01:31:45;;;;;;;59.53;26.43;;;;;;;;;;4993950;28;20613;-81
2021/12/10 01:34:13;;;;;;;63.13;26.57;;;;;;;;;;4962316;28;20206;-81
2021/12/10 01:36:40;;;;;;;71.97;27.90;;;;;;;;;;4993935;28;20206;-81
2021/12/10 01:39:11;;;;;;;72.73;27.90;;;;;;;;;;4978037;28;20202;-81
2021/12/10 01:41:42;;;;;;;85.43;32.23;;;;;;;;;;4977599;28;20233;-81
2021/12/10 01:44:17;;;;;;;74.33;29.80;;;;;;;;;;4977853;28;20178;-79
2021/12/10 01:46:46;;;;;;;71.23;26.97;;;;;;;;;;4978126;28;20217;-79
2021/12/10 01:49:14;;;;;;;76.47;28.80;;;;;;;;;;4977571;28;20198;-79
2021/12/10 01:51:43;;;;;;;74.87;29.37;;;;;;;;;;4993324;28;20198;-79
2021/12/10 01:54:17;;;;;;;66.27;26.97;;;;;;;;;;4977331;28;20202;-80
2021/12/10 01:56:45;;;;;;;70.33;27.00;;;;;;;;;;4977920;28;20542;-80
2021/12/10 01:59:15;;;;;;;74.67;28.93;;;;;;;;;;4977507;28;20202;-79
2021/12/10 02:01:46;;;;;;;66.40;24.57;;;;;;;;;;4992927;28;20249;-79
2021/12/10 02:04:17;;;;;;;64.30;26.30;;;;;;;;;;4977116;28;20182;-79
2021/12/10 02:06:48;;;;;;;68.53;25.73;;;;;;;;;;4976816;28;20742;-80
2021/12/10 02:09:16;;;;;;;86.47;33.27;;;;;;;;;;4993339;28;20178;-80
2021/12/10 02:11:44;;;;;;;66.93;25.17;;;;;;;;;;4992527;28;20614;-80
2021/12/10 02:14:12;;;;;;;73.33;26.70;;;;;;;;;;4977386;28;20194;-79
2021/12/10 02:16:40;;;;;;;76.80;26.50;;;;;;;;;;4976969;28;20198;-80
2021/12/10 02:19:09;;;;;;;80.43;27.37;;;;;;;;;;4977169;28;20562;-80
2021/12/10 02:21:39;;;;;;;71.83;25.43;;;;;;;;;;4992877;28;20198;-80
2021/12/10 02:24:09;;;;;;;72.07;27.03;;;;;;;;;;4992703;28;20197;-80
2021/12/10 02:26:52;;;;;;;73.30;28.90;;;;;;;;;;4992571;28;20222;-81
2021/12/10 02:29:23;;;;;;;68.60;26.40;;;;;;;;;;4992641;28;20170;-80
2021/12/10 02:31:53;;;;;;;62.50;23.03;;;;;;;;;;4992948;28;20174;-81
2021/12/10 02:34:23;;;;;;;70.03;25.87;;;;;;;;;;4993049;28;20202;-80
2021/12/10 02:36:50;;;;;;;75.47;27.77;;;;;;;;;;4976697;28;20280;-80
2021/12/10 02:39:21;;;;;;;78.07;28.33;;;;;;;;;;4976568;28;20620;-80
2021/12/10 02:41:50;;;;;;;69.10;26.10;;;;;;;;;;4992654;28;20178;-80
2021/12/10 02:44:25;;;;;;;65.97;25.67;;;;;;;;;;4976693;28;20204;-80
2021/12/10 02:46:54;;;;;;;77.00;27.10;;;;;;;;;;4992913;28;20206;-79
2021/12/10 02:49:21;;;;;;;68.00;25.73;;;;;;;;;;4976531;28;20648;-80
2021/12/10 02:51:49;;;;;;;62.33;24.87;;;;;;;;;;4992622;28;20715;-80
2021/12/10 02:54:22;;;;;;;77.13;25.87;;;;;;;;;;4992429;28;20205;-80
2021/12/10 02:56:51;;;;;;;66.57;26.40;;;;;;;;;;4993634;28;20202;-80
2021/12/10 02:59:18;;;;;;;65.43;23.50;;;;;;;;;;4992564;28;20190;-80
2021/12/10 03:01:49;;;;;;;63.53;23.70;;;;;;;;;;4992187;28;20206;-81
2021/12/10 03:04:16;;;;;;;71.07;27.73;;;;;;;;;;4992270;28;20588;-79
2021/12/10 03:06:51;;;;;;;60.77;25.20;;;;;;;;;;4976280;28;20222;-78
2021/12/10 03:09:21;;;;;;;71.23;26.90;;;;;;;;;;4976114;28;20236;-78
2021/12/10 03:11:50;;;;;;;79.10;29.17;;;;;;;;;;4992240;28;20230;-78
2021/12/10 03:14:20;;;;;;;72.40;26.57;;;;;;;;;;4977815;28;20205;-79
2021/12/10 03:16:50;;;;;;;68.97;25.57;;;;;;;;;;4980464;28;20206;-79
2021/12/10 03:19:18;;;;;;;83.43;32.33;;;;;;;;;;4980285;28;20189;-79
2021/12/10 03:21:46;;;;;;;69.87;26.73;;;;;;;;;;4980323;28;20186;-80
2021/12/10 03:24:16;;;;;;;66.63;25.87;;;;;;;;;;4979815;28;20198;-79
2021/12/10 03:26:45;;;;;;;71.37;26.23;;;;;;;;;;4996073;28;20260;-79
2021/12/10 03:29:12;;;;;;;78.57;29.77;;;;;;;;;;4980286;28;20194;-79
2021/12/10 03:31:39;;;;;;;72.83;25.83;;;;;;;;;;4979991;28;20202;-79
2021/12/10 03:34:09;;;;;;;63.17;23.50;;;;;;;;;;4996143;28;20206;-79
2021/12/10 03:36:36;;;;;;;77.30;30.07;;;;;;;;;;4980047;28;20244;-80
2021/12/10 03:39:04;;;;;;;72.63;27.40;;;;;;;;;;4995937;28;20205;-80
2021/12/10 03:41:32;;;;;;;76.23;27.80;;;;;;;;;;4995590;28;20190;-81
2021/12/10 03:44:00;;;;;;;73.67;28.70;;;;;;;;;;4979582;28;20300;-81
2021/12/10 03:46:27;;;;;;;64.13;25.40;;;;;;;;;;4979740;28;20226;-80
2021/12/10 03:48:54;;;;;;;64.53;25.10;;;;;;;;;;4995475;28;20190;-80
2021/12/10 03:51:24;;;;;;;61.83;25.87;;;;;;;;;;4979711;28;20198;-78
2021/12/10 03:53:52;;;;;;;59.13;24.77;;;;;;;;;;4995474;28;20224;-79
2021/12/10 03:56:23;;;;;;;59.73;23.90;;;;;;;;;;5011746;28;20680;-79
2021/12/10 03:58:51;;;;;;;61.13;24.70;;;;;;;;;;4979642;28;20197;-79
2021/12/10 04:01:22;;;;;;;55.33;23.90;;;;;;;;;;4995478;28;20195;-80
2021/12/10 04:03:51;;;;;;;56.20;25.27;;;;;;;;;;4995484;28;20189;-79
2021/12/10 04:06:20;;;;;;;57.27;27.03;;;;;;;;;;4979471;28;20210;-81
2021/12/10 04:08:48;;;;;;;55.93;24.77;;;;;;;;;;4995534;28;20194;-81
2021/12/10 04:11:16;;;;;;;55.90;25.43;;;;;;;;;;4995316;28;20274;-81
2021/12/10 04:13:45;;;;;;;58.90;25.10;;;;;;;;;;4993461;28;20202;-79
2021/12/10 04:16:13;;;;;;;51.50;23.57;;;;;;;;;;4995166;28;20326;-80
2021/12/10 04:18:41;;;;;;;49.67;22.73;;;;;;;;;;4978942;28;20644;-81
2021/12/10 04:21:12;;;;;;;49.83;22.47;;;;;;;;;;4980144;28;20229;-81
2021/12/10 04:23:41;;;;;;;56.40;25.63;;;;;;;;;;4995169;28;20202;-81
2021/12/10 04:26:12;;;;;;;49.07;25.23;;;;;;;;;;4978818;28;20218;-81
2021/12/10 04:28:39;;;;;;;50.20;24.30;;;;;;;;;;4995591;28;20185;-81
2021/12/10 04:31:08;;;;;;;49.00;24.27;;;;;;;;;;4995014;28;20618;-79
2021/12/10 04:33:36;;;;;;;58.40;25.57;;;;;;;;;;4979212;28;20206;-81
2021/12/10 04:36:04;;;;;;;50.73;22.67;;;;;;;;;;4979130;28;20212;-82
2021/12/10 04:38:33;;;;;;;131.13;46.70;;;;;;;;;;4994852;28;20202;-81
2021/12/10 04:41:04;;;;;;;70.77;30.17;;;;;;;;;;4978626;28;20252;-81
2021/12/10 04:43:34;;;;;;;58.13;26.33;;;;;;;;;;4978858;28;20183;-81
2021/12/10 04:46:03;;;;;;;58.47;27.53;;;;;;;;;;4978908;28;20181;-82
2021/12/10 04:48:43;;;;;;;95.93;44.57;;;;;;;;;;4994493;28;20248;-81
2021/12/10 04:51:10;;;;;;;48.73;24.03;;;;;;;;;;4979219;28;20572;-81
2021/12/10 04:53:38;;;;;;;49.87;24.93;;;;;;;;;;4978465;28;20615;-81
2021/12/10 04:56:06;;;;;;;51.80;24.03;;;;;;;;;;4978486;28;20229;-81
2021/12/10 04:58:33;;;;;;;62.57;31.43;;;;;;;;;;4978850;28;20648;-81
2021/12/10 05:01:03;;;;;;;49.13;24.87;;;;;;;;;;4994215;28;20197;-86
2021/12/10 05:03:31;;;;;;;51.43;23.33;;;;;;;;;;4978957;28;20194;-82
2021/12/10 05:06:03;;;;;;;79.80;30.40;;;;;;;;;;4994311;28;20198;-87
2021/12/10 05:08:32;;;;;;;64.17;27.60;;;;;;;;;;4994453;28;20182;-86
2021/12/10 05:11:01;;;;;;;58.40;26.47;;;;;;;;;;4973648;28;20230;-85
2021/12/10 05:13:29;;;;;;;51.53;29.07;;;;;;;;;;4993409;28;20230;-85
2021/12/10 05:15:58;;;;;;;53.60;24.13;;;;;;;;;;5025950;28;20238;-85
2021/12/10 05:18:29;;;;;;;48.40;24.20;;;;;;;;;;5008909;28;20703;-83
2021/12/10 05:20:57;;;;;;;46.17;23.10;;;;;;;;;;5009327;28;20710;-83
2021/12/10 05:23:25;;;;;;;86.23;34.10;;;;;;;;;;4993087;28;20226;-86
2021/12/10 05:25:53;;;;;;;58.70;25.10;;;;;;;;;;4992738;28;20642;-85
2021/12/10 05:28:20;;;;;;;48.03;21.30;;;;;;;;;;5009656;28;20226;-84
2021/12/10 05:30:49;;;;;;;47.77;21.93;;;;;;;;;;5009351;28;20233;-81
2021/12/10 05:33:18;;;;;;;40.47;21.10;;;;;;;;;;5009268;28;20218;-81
2021/12/10 05:35:47;;;;;;;47.47;25.07;;;;;;;;;;4993959;28;20233;-83
2021/12/10 05:38:17;;;;;;;53.47;25.63;;;;;;;;;;4976183;28;20218;-82
2021/12/10 05:40:46;;;;;;;40.37;20.47;;;;;;;;;;5008396;28;20245;-84
2021/12/10 05:43:14;;;;;;;49.67;24.47;;;;;;;;;;4993119;28;20229;-80
2021/12/10 05:45:44;;;;;;;50.77;24.83;;;;;;;;;;4992118;28;20729;-80
2021/12/10 05:48:11;;;;;;;52.97;24.70;;;;;;;;;;5006649;28;20234;-80
2021/12/10 05:50:39;;;;;;;60.27;26.10;;;;;;;;;;4991414;28;20350;-79
2021/12/10 05:53:07;;;;;;;41.50;21.90;;;;;;;;;;4972337;28;20219;-80
2021/12/10 05:55:35;;;;;;;46.50;21.53;;;;;;;;;;4975333;28;20702;-84
2021/12/10 05:58:04;;;;;;;39.27;20.10;;;;;;;;;;4992865;28;20226;-83
2021/12/10 06:00:37;;;;;;;42.17;22.43;;;;;;;;;;5008081;28;20241;-80
2021/12/10 06:03:07;;;;;;;45.73;22.03;;;;;;;;;;4973881;28;21029;-82
2021/12/10 06:05:35;;;;;;;43.07;21.13;;;;;;;;;;4975580;28;20265;-83
2021/12/10 06:08:03;;;;;;;42.03;21.13;;;;;;;;;;4992628;28;20261;-83
2021/12/10 06:10:31;;;;;;;37.90;20.10;;;;;;;;;;4991326;28;20242;-79
2021/12/10 06:12:58;;;;;;;37.57;19.67;;;;;;;;;;5008422;28;20325;-85
2021/12/10 06:15:27;;;;;;;36.40;18.27;;;;;;;;;;4991845;28;20324;-84
2021/12/10 06:17:55;;;;;;;34.53;19.03;;;;;;;;;;4990286;28;20256;-80
2021/12/10 06:20:26;;;;;;;38.87;21.27;;;;;;;;;;4992556;28;20273;-84
2021/12/10 06:22:53;;;;;;;42.57;22.00;;;;;;;;;;5003371;28;20274;-83
2021/12/10 06:25:21;;;;;;;40.37;20.90;;;;;;;;;;4991698;28;20196;-81
2021/12/10 06:27:49;;;;;;;34.97;17.40;;;;;;;;;;4991553;28;20221;-82
2021/12/10 06:30:20;;;;;;;209.77;99.87;;;;;;;;;;4959593;28;20195;-84
2021/12/10 06:32:50;;;;;;;44.70;23.93;;;;;;;;;;4975402;28;20228;-88
2021/12/10 06:35:18;;;;;;;35.57;19.60;;;;;;;;;;4975782;28;20245;-86
2021/12/10 06:37:45;;;;;;;37.57;19.57;;;;;;;;;;4991122;28;20660;-84
2021/12/10 06:40:16;;;;;;;42.87;25.77;;;;;;;;;;4991704;28;20257;-77
2021/12/10 06:42:44;;;;;;;33.67;18.67;;;;;;;;;;4986560;28;20221;-84
2021/12/10 06:45:15;;;;;;;52.30;21.73;;;;;;;;;;4988686;28;20614;-85
2021/12/10 06:47:48;;;;;;;38.67;18.50;;;;;;;;;;4990083;28;20222;-86
2021/12/10 06:50:20;;;;;;;34.23;17.10;;;;;;;;;;4972330;28;20190;-83
2021/12/10 06:52:48;;;;;;;37.27;17.63;;;;;;;;;;5006162;28;20198;-89
2021/12/10 06:55:16;;;;;;;32.13;16.67;;;;;;;;;;4975573;28;20273;-88
2021/12/10 06:57:45;;;;;;;162.73;72.50;;;;;;;;;;4973284;28;20232;-88
2021/12/10 07:00:27;;;;;;;49.30;25.70;;;;;;;;;;5004616;28;20638;-87
2021/12/10 07:02:55;;;;;;;33.47;17.50;;;;;;;;;;4974146;28;20214;-86
2021/12/10 07:05:23;;;;;;;32.83;19.03;;;;;;;;;;5009493;28;20644;-79
2021/12/10 07:07:52;;;;;;;40.57;19.53;;;;;;;;;;4988082;28;20210;-85
2021/12/10 07:10:19;;;;;;;35.73;18.70;;;;;;;;;;4990416;28;20202;-83
2021/12/10 07:12:48;;;;;;;32.20;15.70;;;;;;;;;;4959138;28;20242;-82
2021/12/10 07:15:16;;;;;;;34.57;18.53;;;;;;;;;;4987797;28;20721;-81
2021/12/10 07:17:48;;;;;;;26.83;12.77;;;;;;;;;;4973247;28;20205;-82
2021/12/10 07:20:19;;;;;;;25.17;13.37;;;;;;;;;;4982678;28;20221;-83
2021/12/10 07:22:46;;;;;;;25.03;13.30;;;;;;;;;;5005515;28;20571;-81
2021/12/10 07:25:14;;;;;;;121.87;52.70;;;;;;;;;;4974527;28;20222;-83
2021/12/10 07:27:42;;;;;;;37.73;21.50;;;;;;;;;;4974664;28;20301;-83
2021/12/10 07:30:10;;;;;;;25.80;15.43;;;;;;;;;;5009291;28;20202;-83
2021/12/10 07:32:37;;;;;;;23.20;12.63;;;;;;;;;;4975703;28;20198;-86
2021/12/10 07:35:08;;;;;;;28.10;15.17;;;;;;;;;;4992955;28;20191;-85
2021/12/10 07:37:38;;;;;;;22.87;13.60;;;;;;;;;;4994395;28;20250;-84
2021/12/10 07:40:15;;;;;;;44.13;23.93;;;;;;;;;;4994166;28;20185;-85
2021/12/10 07:42:43;;;;;;;39.00;20.83;;;;;;;;;;5022029;28;20281;-85
2021/12/10 07:45:11;;;;;;;27.43;15.43;;;;;;;;;;4976473;28;20194;-84
2021/12/10 07:47:40;;;;;;;29.87;16.17;;;;;;;;;;4962324;28;20222;-83
2021/12/10 07:50:17;;;;;;;36.57;17.50;;;;;;;;;;4961575;28;20561;-88
2021/12/10 07:52:46;;;;;;;37.07;17.37;;;;;;;;;;4962170;28;20213;-87
2021/12/10 07:55:16;;;;;;;27.37;15.13;;;;;;;;;;4960179;28;20194;-84
2021/12/10 07:57:50;;;;;;;31.23;15.80;;;;;;;;;;4977727;28;20652;-85
2021/12/10 08:00:20;;;;;;;48.87;27.00;;;;;;;;;;4977137;28;20525;-83
2021/12/10 08:02:50;;;;;;;27.47;16.33;;;;;;;;;;4948953;28;20233;-85
2021/12/10 08:05:19;;;;;;;26.80;14.23;;;;;;;;;;4997279;28;20190;-85
2021/12/10 08:07:51;;;;;;;30.50;17.87;;;;;;;;;;4981361;28;20210;-84
2021/12/10 08:10:24;;;;;;;33.27;17.63;;;;;;;;;;4978768;28;20194;-86
2021/12/10 08:12:58;;;;;;;30.07;16.00;;;;;;;;;;4994429;28;20225;-88
2021/12/10 08:15:28;;;;;;;35.73;17.43;;;;;;;;;;4962725;28;20648;-85
2021/12/10 08:17:55;;;;;;;29.50;16.60;;;;;;;;;;4993718;28;20229;-87
2021/12/10 08:20:24;;;;;;;29.30;16.20;;;;;;;;;;4978404;28;20264;-81
2021/12/10 08:22:53;;;;;;;26.93;14.97;;;;;;;;;;4994142;28;21055;-87
2021/12/10 08:25:22;;;;;;;39.77;24.10;;;;;;;;;;4962401;28;20286;-87
2021/12/10 08:27:51;;;;;;;38.57;20.93;;;;;;;;;;4992424;28;20290;-88
2021/12/10 08:30:21;;;;;;;29.90;16.90;;;;;;;;;;5008333;28;20582;-87
2021/12/10 08:32:49;;;;;;;26.73;16.83;;;;;;;;;;4977448;28;20197;-86
2021/12/10 08:35:20;;;;;;;32.47;20.03;;;;;;;;;;4977416;28;20241;-87
2021/12/10 08:37:48;;;;;;;31.13;18.50;;;;;;;;;;4979064;28;20317;-84
2021/12/10 08:40:19;;;;;;;34.50;17.63;;;;;;;;;;4995412;28;20198;-83
2021/12/10 08:42:47;;;;;;;68.23;28.67;;;;;;;;;;4995735;28;20186;-84
2021/12/10 08:45:15;;;;;;;48.43;25.73;;;;;;;;;;4993446;28;20227;-84
2021/12/10 08:47:43;;;;;;;35.13;19.63;;;;;;;;;;4993226;28;20214;-80
2021/12/10 08:50:10;;;;;;;36.10;18.53;;;;;;;;;;4978078;28;20240;-85
2021/12/10 08:52:38;;;;;;;43.07;26.80;;;;;;;;;;4975531;28;20209;-83
2021/12/10 08:55:06;;;;;;;39.37;22.73;;;;;;;;;;4992872;28;20198;-82
2021/12/10 08:57:33;;;;;;;35.00;19.80;;;;;;;;;;4993016;28;20209;-84
2021/12/10 09:00:05;;;;;;;33.17;22.03;;;;;;;;;;4976986;28;20608;-87
2021/12/10 09:02:37;;;;;;;33.13;20.50;;;;;;;;;;4976374;28;20214;-83
2021/12/10 09:05:08;;;;;;;47.30;22.60;;;;;;;;;;4991970;28;20194;-85
2021/12/10 09:07:38;;;;;;;36.60;19.17;;;;;;;;;;4978569;28;20214;-81
2021/12/10 09:10:08;;;;;;;34.03;18.60;;;;;;;;;;4979683;28;20648;-83
2021/12/10 09:12:38;;;;;;;30.57;17.43;;;;;;;;;;4977559;28;20236;-82
2021/12/10 09:15:08;;;;;;;37.53;19.83;;;;;;;;;;4977513;28;20283;-83
2021/12/10 09:17:39;;;;;;;39.80;24.20;;;;;;;;;;4977492;28;20190;-83
2021/12/10 09:20:22;;;;;;;33.73;19.43;;;;;;;;;;5009882;28;20262;-83
2021/12/10 09:22:50;;;;;;;33.47;19.07;;;;;;;;;;4976895;28;20190;-83
2021/12/10 09:25:18;;;;;;;98.17;36.77;;;;;;;;;;4977420;28;20277;-83
2021/12/10 09:27:46;;;;;;;58.83;26.60;;;;;;;;;;4977299;28;20221;-81
2021/12/10 09:30:16;;;;;;;43.77;21.90;;;;;;;;;;4990593;28;20190;-80
2021/12/10 09:32:44;;;;;;;46.20;21.23;;;;;;;;;;4976075;28;20250;-80
2021/12/10 09:35:13;;;;;;;47.90;22.50;;;;;;;;;;4992479;28;20223;-84
2021/12/10 09:37:43;;;;;;;43.73;24.00;;;;;;;;;;4969264;28;20191;-80
2021/12/10 09:40:16;;;;;;;39.37;23.63;;;;;;;;;;4985303;28;20202;-82
2021/12/10 09:42:44;;;;;;;40.87;24.00;;;;;;;;;;4977179;28;20202;-78
2021/12/10 09:45:16;;;;;;;35.23;20.40;;;;;;;;;;5000145;28;20277;-84
2021/12/10 09:47:44;;;;;;;34.37;19.83;;;;;;;;;;4957292;28;20234;-81
2021/12/10 09:50:14;;;;;;;34.43;19.33;;;;;;;;;;4990934;28;20202;-84
2021/12/10 09:52:43;;;;;;;34.57;18.60;;;;;;;;;;4982736;28;20194;-84
2021/12/10 09:55:14;;;;;;;32.90;18.63;;;;;;;;;;4976573;28;20213;-86
2021/12/10 09:57:43;;;;;;;36.50;19.60;;;;;;;;;;4959780;28;20199;-81
2021/12/10 10:00:22;;;;;;;38.63;23.07;;;;;;;;;;4974881;28;20193;-78
2021/12/10 10:02:49;;;;;;;33.13;20.60;;;;;;;;;;5004274;28;20190;-85
2021/12/10 10:05:18;;;;;;;31.27;19.57;;;;;;;;;;4974645;28;20223;-86
2021/12/10 10:07:51;;;;;;;39.90;22.13;;;;;;;;;;4973839;28;20226;-82
2021/12/10 10:10:23;;;;;;;41.93;24.27;;;;;;;;;;5021721;28;20277;-80
2021/12/10 10:12:56;;;;;;;42.50;23.00;;;;;;;;;;4959811;28;20248;-82
2021/12/10 10:15:28;;;;;;;54.23;27.10;;;;;;;;;;4975684;28;20249;-80
2021/12/10 10:17:58;;;;;;;45.67;24.27;;;;;;;;;;4990694;28;20895;-82
2021/12/10 10:20:30;;;;;;;36.87;19.97;;;;;;;;;;4988414;28;20194;-81
2021/12/10 10:23:01;;;;;;;34.97;21.47;;;;;;;;;;4976701;28;20725;-82
2021/12/10 10:25:30;;;;;;;39.43;22.50;;;;;;;;;;4991019;28;20198;-82
2021/12/10 10:27:57;;;;;;;42.40;26.00;;;;;;;;;;4992417;28;20587;-81
2021/12/10 10:30:32;;;;;;;36.17;22.00;;;;;;;;;;4971718;28;20277;-84
2021/12/10 10:33:03;;;;;;;35.20;20.73;;;;;;;;;;4987949;28;20193;-81
2021/12/10 10:35:36;;;;;;;40.00;23.90;;;;;;;;;;4975008;28;20656;-80
2021/12/10 10:38:04;;;;;;;43.50;25.03;;;;;;;;;;4974346;28;20675;-84
2021/12/10 10:40:36;;;;;;;49.93;26.07;;;;;;;;;;4987725;28;20265;-82
2021/12/10 10:43:04;;;;;;;50.40;26.13;;;;;;;;;;4973428;28;20269;-84
2021/12/10 10:45:35;;;;;;;40.17;22.73;;;;;;;;;;4975098;28;20201;-83
2021/12/10 10:48:05;;;;;;;37.73;22.63;;;;;;;;;;4978432;28;20627;-86
2021/12/10 10:50:47;;;;;;;37.53;21.10;;;;;;;;;;4977182;28;20212;-84
2021/12/10 10:53:16;;;;;;;50.20;27.47;;;;;;;;;;4988712;28;20399;-85
2021/12/10 10:55:58;;;;;;;44.03;26.13;;;;;;;;;;4991536;28;20201;-81
2021/12/10 10:58:34;;;;;;;45.00;25.17;;;;;;;;;;5007029;28;20209;-84
2021/12/10 11:01:14;;;;;;;45.03;27.03;;;;;;;;;;4991682;28;20216;-84
2021/12/10 11:04:12;;;;;;;43.37;25.73;;;;;;;;;;4989150;28;20194;-84
2021/12/10 11:06:46;;;;;;;52.83;28.73;;;;;;;;;;4976201;28;20193;-86
2021/12/10 11:09:21;;;;;;;44.90;26.07;;;;;;;;;;4991397;28;20228;-86
2021/12/10 11:11:53;;;;;;;49.40;27.97;;;;;;;;;;4993036;28;20292;-86
2021/12/10 11:14:28;;;;;;;47.87;27.27;;;;;;;;;;4973665;28;20186;-83
2021/12/10 11:17:08;;;;;;;41.30;23.40;;;;;;;;;;4991904;28;20264;-83
2021/12/10 11:20:00;;;;;;;44.20;24.50;;;;;;;;;;5017570;28;20256;-80
2021/12/10 11:22:29;;;;;;;50.80;29.73;;;;;;;;;;4995123;28;20193;-86
2021/12/10 11:25:12;;;;;;;46.47;25.60;;;;;;;;;;4991824;28;20201;-85
2021/12/10 11:27:41;;;;;;;42.93;24.97;;;;;;;;;;4990767;28;20234;-85
2021/12/10 11:30:21;;;;;;;52.30;28.60;;;;;;;;;;4987846;28;20668;-81
2021/12/10 11:32:52;;;;;;;51.70;30.03;;;;;;;;;;5020276;28;20522;-83
2021/12/10 11:35:36;;;;;;;58.33;29.87;;;;;;;;;;4981351;28;20652;-79
2021/12/10 11:38:28;;;;;;;56.37;31.50;;;;;;;;;;5009718;28;20190;-82
2021/12/10 11:41:00;;;;;;;62.10;33.00;;;;;;;;;;5024941;28;20269;-81
2021/12/10 11:43:44;;;;;;;62.07;30.53;;;;;;;;;;5007140;28;20653;-79
2021/12/10 11:46:32;;;;;;;56.07;29.10;;;;;;;;;;4993403;28;20214;-83
2021/12/10 11:49:04;;;;;;;48.03;25.77;;;;;;;;;;4975932;28;20230;-84
2021/12/10 11:51:47;;;;;;;54.10;28.43;;;;;;;;;;4960202;28;20589;-87
2021/12/10 11:54:17;;;;;;;59.90;34.63;;;;;;;;;;4991312;28;20286;-82
2021/12/10 11:56:54;;;;;;;57.03;34.20;;;;;;;;;;4975713;28;20231;-84
2021/12/10 11:59:39;;;;;;;52.90;29.70;;;;;;;;;;4959872;28;20199;-82
2021/12/10 12:02:18;;;;;;;73.00;42.40;;;;;;;;;;4991445;28;20715;-85
2021/12/10 12:04:50;;;;;;;51.83;28.53;;;;;;;;;;4995640;28;20244;-83
2021/12/10 12:07:40;;;;;;;57.50;29.80;;;;;;;;;;4972482;28;20190;-84
2021/12/10 12:10:21;;;;;;;64.53;32.53;;;;;;;;;;4994714;28;20203;-81
2021/12/10 12:12:53;;;;;;;65.40;31.90;;;;;;;;;;4976578;28;20235;-80
2021/12/10 12:15:36;;;;;;;52.70;28.03;;;;;;;;;;4959690;28;20201;-81
2021/12/10 12:18:09;;;;;;;68.90;37.87;;;;;;;;;;4969454;28;20198;-81
2021/12/10 12:21:37;;;;;;;52.67;30.53;;;;;;;;;;4959770;28;20207;-81
2021/12/10 12:26:33;;;;;;;95.17;42.87;;;;;;;;;;4985793;28;20201;-82
2021/12/10 12:29:21;;;;;;;76.13;33.97;;;;;;;;;;4965471;28;20245;-86
2021/12/10 12:31:53;;;;;;;76.30;34.77;;;;;;;;;;5010224;28;20547;-83
2021/12/10 12:34:23;;;;;;;68.10;31.70;;;;;;;;;;4961985;28;20225;-83
2021/12/10 12:36:58;;;;;;;59.77;31.23;;;;;;;;;;4975149;28;20255;-82
2021/12/10 12:39:48;;;;;;;80.97;46.73;;;;;;;;;;4986395;28;20201;-83
2021/12/10 12:42:19;;;;;;;60.50;33.40;;;;;;;;;;4979078;28;20198;-79
2021/12/10 12:44:56;;;;;;;60.40;32.97;;;;;;;;;;4977970;28;20198;-83
2021/12/10 12:47:50;;;;;;;56.50;30.97;;;;;;;;;;4969867;28;20202;-83
2021/12/10 12:50:40;;;;;;;63.43;32.17;;;;;;;;;;4961691;28;20199;-82
2021/12/10 12:53:30;;;;;;;55.73;30.47;;;;;;;;;;4975017;28;20191;-83
2021/12/10 12:56:03;;;;;;;57.33;29.43;;;;;;;;;;4975144;28;20640;-82
2021/12/10 12:58:59;;;;;;;57.10;29.27;;;;;;;;;;4990550;28;20195;-81
2021/12/10 13:01:43;;;;;;;75.40;38.20;;;;;;;;;;4943200;28;20195;-80
2021/12/10 13:04:15;;;;;;;60.03;32.77;;;;;;;;;;4959468;28;20322;-82
2021/12/10 13:07:11;;;;;;;59.60;29.60;;;;;;;;;;4961518;28;20183;-84
2021/12/10 13:09:48;;;;;;;64.27;33.03;;;;;;;;;;4975025;28;20221;-82
2021/12/10 13:15:19;;;;;;;59.33;29.93;;;;;;;;;;4975418;28;20278;-82
2021/12/10 13:17:57;;;;;;;67.87;33.10;;;;;;;;;;4974459;28;20197;-82
2021/12/10 13:20:28;;;;;;;58.17;28.90;;;;;;;;;;4958584;28;20269;-80
2021/12/10 13:23:00;;;;;;;57.10;28.93;;;;;;;;;;4958569;28;20615;-82
2021/12/10 13:25:30;;;;;;;59.50;28.37;;;;;;;;;;4974696;28;20681;-79
2021/12/10 13:28:00;;;;;;;245.33;124.87;;;;;;;;;;4979980;28;20643;-82
2021/12/10 13:30:35;;;;;;;78.77;40.13;;;;;;;;;;4988730;28;20245;-81
2021/12/10 13:33:03;;;;;;;61.80;32.27;;;;;;;;;;4996294;28;20308;-82
2021/12/10 13:35:33;;;;;;;59.80;29.93;;;;;;;;;;5007386;28;20240;-80
2021/12/10 13:38:02;;;;;;;56.73;29.43;;;;;;;;;;5008388;28;20234;-82
2021/12/10 13:40:32;;;;;;;62.43;30.53;;;;;;;;;;5006079;28;20234;-78
2021/12/10 13:43:03;;;;;;;61.77;31.47;;;;;;;;;;4974104;28;20573;-80
2021/12/10 13:45:34;;;;;;;64.53;32.30;;;;;;;;;;4980145;28;20231;-79
2021/12/10 13:48:07;;;;;;;54.33;30.57;;;;;;;;;;4973734;28;20229;-82
2021/12/10 13:50:44;;;;;;;85.50;38.93;;;;;;;;;;4974584;28;20234;-83
2021/12/10 13:53:13;;;;;;;59.93;30.10;;;;;;;;;;4990269;28;20218;-83
2021/12/10 13:55:47;;;;;;;57.83;29.47;;;;;;;;;;4989755;28;20230;-82
2021/12/10 13:58:21;;;;;;;62.37;31.00;;;;;;;;;;4973343;28;20306;-83
2021/12/10 14:01:11;;;;;;;140.03;64.60;;;;;;;;;;4989267;28;20743;-82
2021/12/10 14:03:55;;;;;;;71.77;37.80;;;;;;;;;;4958176;28;20759;-84
2021/12/10 14:06:35;;;;;;;69.50;36.50;;;;;;;;;;5004808;28;20227;-84
2021/12/10 14:09:15;;;;;;;88.77;44.00;;;;;;;;;;4973219;28;20372;-82
2021/12/10 14:12:05;;;;;;;64.90;32.90;;;;;;;;;;4989543;28;20325;-78
2021/12/10 14:14:36;;;;;;;61.63;32.70;;;;;;;;;;4978816;28;20226;-84
2021/12/10 14:17:08;;;;;;;84.10;38.07;;;;;;;;;;4976676;28;20257;-82
2021/12/10 14:19:58;;;;;;;67.53;31.43;;;;;;;;;;4992935;28;20711;-82
2021/12/10 14:23:15;;;;;;;69.00;30.57;;;;;;;;;;4979549;28;20357;-84
2021/12/10 14:26:18;;;;;;;65.87;30.87;;;;;;;;;;4990885;28;20320;-83
2021/12/10 14:29:15;;;;;;;81.23;40.93;;;;;;;;;;4980665;28;20233;-82
2021/12/10 14:32:18;;;;;;;169.37;85.60;;;;;;;;;;4992369;28;20222;-83
2021/12/10 14:35:04;;;;;;;202.80;97.23;;;;;;;;;;4992795;28;20585;-82
2021/12/10 14:37:52;;;;;;;221.93;112.43;;;;;;;;;;4976348;28;20699;-82
2021/12/10 14:40:52;;;;;;;152.60;73.23;;;;;;;;;;4993907;28;20217;-82
2021/12/10 14:43:22;;;;;;;289.43;148.40;;;;;;;;;;4975580;28;20796;-83
2021/12/10 14:46:06;;;;;;;260.73;132.33;;;;;;;;;;5007841;28;20742;-83
2021/12/10 14:48:38;;;;;;;311.97;165.47;;;;;;;;;;4992302;28;20229;-85
2021/12/10 14:51:27;;;;;;;267.27;132.13;;;;;;;;;;4994958;28;20225;-83
2021/12/10 14:54:18;;;;;;;349.53;161.03;;;;;;;;;;4978600;28;20615;-81
2021/12/10 14:57:06;;;;;;;323.23;149.33;;;;;;;;;;4981409;28;20226;-85
2021/12/10 14:59:53;;;;;;;370.80;144.97;;;;;;;;;;5020456;28;20226;-86
2021/12/10 15:02:41;;;;;;;416.00;178.17;;;;;;;;;;4981296;28;20228;-86
2021/12/10 15:05:43;;;;;;;496.30;197.80;;;;;;;;;;4994736;28;20225;-83